sensor_id;sensor_type;location;lat;lon;timestamp;P1;durP1;ratioP1;P2;durP2;ratioP2
50968;SDS011;36982;51.474;7.228;2023-11-18T00:00:57;22.00;;;10.37;;
50968;SDS011;36982;51.474;7.228;2023-11-18T00:03:23;21.13;;;10.63;;
50968;SDS011;36982;51.474;7.228;2023-11-18T00:05:49;22.70;;;10.13;;
50968;SDS011;36982;51.474;7.228;2023-11-18T00:08:15;17.60;;;10.03;;
50968;SDS011;36982;51.474;7.228;2023-11-18T00:10:41;20.53;;;10.73;;
50968;SDS011;36982;51.474;7.228;2023-11-18T00:13:06;20.00;;;10.10;;
50968;SDS011;36982;51.474;7.228;2023-11-18T00:15:32;17.97;;;9.67;;
50968;SDS011;36982;51.474;7.228;2023-11-18T00:18:00;19.23;;;9.57;;
50968;SDS011;36982;51.474;7.228;2023-11-18T00:20:25;18.43;;;9.17;;
50968;SDS011;36982;51.474;7.228;2023-11-18T00:22:51;20.90;;;9.53;;
50968;SDS011;36982;51.474;7.228;2023-11-18T00:25:18;19.10;;;8.93;;
50968;SDS011;36982;51.474;7.228;2023-11-18T00:27:43;19.20;;;10.23;;
50968;SDS011;36982;51.474;7.228;2023-11-18T00:30:09;16.37;;;9.43;;
50968;SDS011;36982;51.474;7.228;2023-11-18T00:32:38;19.53;;;9.37;;
50968;SDS011;36982;51.474;7.228;2023-11-18T00:35:04;18.83;;;9.67;;
50968;SDS011;36982;51.474;7.228;2023-11-18T00:37:30;17.67;;;9.17;;
50968;SDS011;36982;51.474;7.228;2023-11-18T00:39:56;17.97;;;8.90;;
50968;SDS011;36982;51.474;7.228;2023-11-18T00:42:22;17.80;;;8.93;;
50968;SDS011;36982;51.474;7.228;2023-11-18T00:44:47;16.87;;;10.00;;
50968;SDS011;36982;51.474;7.228;2023-11-18T00:47:13;19.63;;;9.30;;
50968;SDS011;36982;51.474;7.228;2023-11-18T00:49:39;17.97;;;9.53;;
50968;SDS011;36982;51.474;7.228;2023-11-18T00:52:05;17.37;;;9.20;;
50968;SDS011;36982;51.474;7.228;2023-11-18T00:54:30;18.03;;;9.53;;
50968;SDS011;36982;51.474;7.228;2023-11-18T00:56:56;18.63;;;9.67;;
50968;SDS011;36982;51.474;7.228;2023-11-18T00:59:22;20.10;;;9.37;;
50968;SDS011;36982;51.474;7.228;2023-11-18T01:01:47;17.33;;;9.53;;
50968;SDS011;36982;51.474;7.228;2023-11-18T01:04:14;19.30;;;9.60;;
50968;SDS011;36982;51.474;7.228;2023-11-18T01:06:41;16.13;;;9.13;;
50968;SDS011;36982;51.474;7.228;2023-11-18T01:09:07;18.37;;;8.97;;
50968;SDS011;36982;51.474;7.228;2023-11-18T01:11:34;17.33;;;9.20;;
50968;SDS011;36982;51.474;7.228;2023-11-18T01:14:00;17.10;;;9.03;;
50968;SDS011;36982;51.474;7.228;2023-11-18T01:16:27;19.07;;;9.10;;
50968;SDS011;36982;51.474;7.228;2023-11-18T01:18:53;20.27;;;9.27;;
50968;SDS011;36982;51.474;7.228;2023-11-18T01:21:19;19.33;;;9.10;;
50968;SDS011;36982;51.474;7.228;2023-11-18T01:23:45;17.70;;;9.37;;
50968;SDS011;36982;51.474;7.228;2023-11-18T01:26:11;18.93;;;9.00;;
50968;SDS011;36982;51.474;7.228;2023-11-18T01:28:37;18.67;;;8.97;;
50968;SDS011;36982;51.474;7.228;2023-11-18T01:31:06;20.00;;;8.93;;
50968;SDS011;36982;51.474;7.228;2023-11-18T01:33:35;15.97;;;8.97;;
50968;SDS011;36982;51.474;7.228;2023-11-18T01:36:02;18.40;;;8.97;;
50968;SDS011;36982;51.474;7.228;2023-11-18T01:38:28;15.77;;;8.77;;
50968;SDS011;36982;51.474;7.228;2023-11-18T01:40:55;18.93;;;9.17;;
50968;SDS011;36982;51.474;7.228;2023-11-18T01:43:21;14.10;;;8.63;;
50968;SDS011;36982;51.474;7.228;2023-11-18T01:45:47;14.77;;;8.53;;
50968;SDS011;36982;51.474;7.228;2023-11-18T01:48:13;14.87;;;8.10;;
50968;SDS011;36982;51.474;7.228;2023-11-18T01:50:40;15.50;;;7.90;;
50968;SDS011;36982;51.474;7.228;2023-11-18T01:53:07;14.17;;;7.20;;
50968;SDS011;36982;51.474;7.228;2023-11-18T01:55:34;14.20;;;7.87;;
50968;SDS011;36982;51.474;7.228;2023-11-18T01:58:01;13.00;;;7.27;;
50968;SDS011;36982;51.474;7.228;2023-11-18T02:00:35;13.63;;;7.53;;
50968;SDS011;36982;51.474;7.228;2023-11-18T02:03:11;16.00;;;7.60;;
50968;SDS011;36982;51.474;7.228;2023-11-18T02:05:39;15.10;;;7.17;;
50968;SDS011;36982;51.474;7.228;2023-11-18T02:08:07;16.03;;;7.60;;
50968;SDS011;36982;51.474;7.228;2023-11-18T02:10:33;12.80;;;7.37;;
50968;SDS011;36982;51.474;7.228;2023-11-18T02:13:10;13.50;;;7.63;;
50968;SDS011;36982;51.474;7.228;2023-11-18T02:15:56;14.20;;;7.43;;
50968;SDS011;36982;51.474;7.228;2023-11-18T02:18:25;14.60;;;8.00;;
50968;SDS011;36982;51.474;7.228;2023-11-18T02:20:56;14.70;;;7.53;;
50968;SDS011;36982;51.474;7.228;2023-11-18T02:23:23;11.90;;;6.63;;
50968;SDS011;36982;51.474;7.228;2023-11-18T02:25:51;13.10;;;7.07;;
50968;SDS011;36982;51.474;7.228;2023-11-18T02:28:16;11.80;;;7.43;;
50968;SDS011;36982;51.474;7.228;2023-11-18T02:30:43;12.43;;;7.30;;
50968;SDS011;36982;51.474;7.228;2023-11-18T02:33:21;12.67;;;6.63;;
50968;SDS011;36982;51.474;7.228;2023-11-18T02:35:51;13.77;;;7.17;;
50968;SDS011;36982;51.474;7.228;2023-11-18T02:38:22;12.73;;;7.17;;
50968;SDS011;36982;51.474;7.228;2023-11-18T02:41:02;16.53;;;7.37;;
50968;SDS011;36982;51.474;7.228;2023-11-18T02:43:34;14.67;;;7.83;;
50968;SDS011;36982;51.474;7.228;2023-11-18T02:46:02;15.10;;;7.50;;
50968;SDS011;36982;51.474;7.228;2023-11-18T02:48:30;14.00;;;7.47;;
50968;SDS011;36982;51.474;7.228;2023-11-18T02:50:57;14.73;;;7.60;;
50968;SDS011;36982;51.474;7.228;2023-11-18T02:53:23;17.20;;;7.53;;
50968;SDS011;36982;51.474;7.228;2023-11-18T02:55:49;13.27;;;7.60;;
50968;SDS011;36982;51.474;7.228;2023-11-18T02:58:17;14.73;;;7.50;;
50968;SDS011;36982;51.474;7.228;2023-11-18T03:00:43;13.40;;;7.40;;
50968;SDS011;36982;51.474;7.228;2023-11-18T03:03:09;13.60;;;7.00;;
50968;SDS011;36982;51.474;7.228;2023-11-18T03:05:36;16.17;;;8.87;;
50968;SDS011;36982;51.474;7.228;2023-11-18T03:08:02;14.13;;;7.27;;
50968;SDS011;36982;51.474;7.228;2023-11-18T03:10:31;13.90;;;7.50;;
50968;SDS011;36982;51.474;7.228;2023-11-18T03:13:00;13.70;;;7.30;;
50968;SDS011;36982;51.474;7.228;2023-11-18T03:15:26;13.63;;;7.73;;
50968;SDS011;36982;51.474;7.228;2023-11-18T03:17:52;13.90;;;8.20;;
50968;SDS011;36982;51.474;7.228;2023-11-18T03:20:21;13.20;;;7.73;;
50968;SDS011;36982;51.474;7.228;2023-11-18T03:22:48;13.27;;;7.77;;
50968;SDS011;36982;51.474;7.228;2023-11-18T03:25:16;13.90;;;6.97;;
50968;SDS011;36982;51.474;7.228;2023-11-18T03:27:44;11.93;;;7.30;;
50968;SDS011;36982;51.474;7.228;2023-11-18T03:30:09;12.90;;;6.97;;
50968;SDS011;36982;51.474;7.228;2023-11-18T03:32:35;12.83;;;7.53;;
50968;SDS011;36982;51.474;7.228;2023-11-18T03:35:02;13.83;;;7.97;;
50968;SDS011;36982;51.474;7.228;2023-11-18T03:37:32;13.50;;;7.33;;
50968;SDS011;36982;51.474;7.228;2023-11-18T03:39:57;14.97;;;7.60;;
50968;SDS011;36982;51.474;7.228;2023-11-18T03:42:23;12.87;;;7.33;;
50968;SDS011;36982;51.474;7.228;2023-11-18T03:44:49;12.37;;;7.43;;
50968;SDS011;36982;51.474;7.228;2023-11-18T03:47:15;14.00;;;8.00;;
50968;SDS011;36982;51.474;7.228;2023-11-18T03:49:40;12.10;;;6.77;;
50968;SDS011;36982;51.474;7.228;2023-11-18T03:52:07;13.27;;;7.23;;
50968;SDS011;36982;51.474;7.228;2023-11-18T03:54:32;12.47;;;7.43;;
50968;SDS011;36982;51.474;7.228;2023-11-18T03:56:58;12.23;;;6.97;;
50968;SDS011;36982;51.474;7.228;2023-11-18T03:59:24;12.30;;;7.63;;
50968;SDS011;36982;51.474;7.228;2023-11-18T04:01:50;13.87;;;7.90;;
50968;SDS011;36982;51.474;7.228;2023-11-18T04:04:16;12.40;;;7.60;;
50968;SDS011;36982;51.474;7.228;2023-11-18T04:06:42;13.93;;;7.13;;
50968;SDS011;36982;51.474;7.228;2023-11-18T04:09:08;12.20;;;7.23;;
50968;SDS011;36982;51.474;7.228;2023-11-18T04:11:35;13.53;;;7.20;;
50968;SDS011;36982;51.474;7.228;2023-11-18T04:14:01;12.73;;;6.73;;
50968;SDS011;36982;51.474;7.228;2023-11-18T04:16:28;13.93;;;7.07;;
50968;SDS011;36982;51.474;7.228;2023-11-18T04:18:54;14.03;;;8.30;;
50968;SDS011;36982;51.474;7.228;2023-11-18T04:21:20;13.33;;;7.10;;
50968;SDS011;36982;51.474;7.228;2023-11-18T04:23:46;14.80;;;7.80;;
50968;SDS011;36982;51.474;7.228;2023-11-18T04:26:12;13.17;;;6.87;;
50968;SDS011;36982;51.474;7.228;2023-11-18T04:28:38;13.10;;;7.57;;
50968;SDS011;36982;51.474;7.228;2023-11-18T04:31:04;13.50;;;7.30;;
50968;SDS011;36982;51.474;7.228;2023-11-18T04:33:30;11.07;;;6.70;;
50968;SDS011;36982;51.474;7.228;2023-11-18T04:35:56;12.13;;;7.07;;
50968;SDS011;36982;51.474;7.228;2023-11-18T04:38:25;11.20;;;6.30;;
50968;SDS011;36982;51.474;7.228;2023-11-18T04:40:51;11.13;;;7.03;;
50968;SDS011;36982;51.474;7.228;2023-11-18T04:43:19;9.63;;;6.47;;
50968;SDS011;36982;51.474;7.228;2023-11-18T04:45:45;11.40;;;7.30;;
50968;SDS011;36982;51.474;7.228;2023-11-18T04:48:11;11.17;;;7.07;;
50968;SDS011;36982;51.474;7.228;2023-11-18T04:50:38;13.63;;;6.80;;
50968;SDS011;36982;51.474;7.228;2023-11-18T04:53:04;11.60;;;7.07;;
50968;SDS011;36982;51.474;7.228;2023-11-18T04:55:33;12.43;;;7.07;;
50968;SDS011;36982;51.474;7.228;2023-11-18T04:58:00;13.83;;;7.60;;
50968;SDS011;36982;51.474;7.228;2023-11-18T05:00:25;9.80;;;6.17;;
50968;SDS011;36982;51.474;7.228;2023-11-18T05:02:52;12.40;;;7.13;;
50968;SDS011;36982;51.474;7.228;2023-11-18T05:05:19;11.13;;;6.53;;
50968;SDS011;36982;51.474;7.228;2023-11-18T05:07:44;10.47;;;6.53;;
50968;SDS011;36982;51.474;7.228;2023-11-18T05:10:10;10.43;;;6.70;;
50968;SDS011;36982;51.474;7.228;2023-11-18T05:12:36;10.83;;;6.63;;
50968;SDS011;36982;51.474;7.228;2023-11-18T05:15:03;12.03;;;7.13;;
50968;SDS011;36982;51.474;7.228;2023-11-18T05:17:31;10.80;;;6.80;;
50968;SDS011;36982;51.474;7.228;2023-11-18T05:19:59;13.17;;;6.83;;
50968;SDS011;36982;51.474;7.228;2023-11-18T05:22:25;12.13;;;6.80;;
50968;SDS011;36982;51.474;7.228;2023-11-18T05:24:51;11.73;;;6.93;;
50968;SDS011;36982;51.474;7.228;2023-11-18T05:27:18;11.93;;;6.77;;
50968;SDS011;36982;51.474;7.228;2023-11-18T05:29:43;12.83;;;7.40;;
50968;SDS011;36982;51.474;7.228;2023-11-18T05:32:19;12.93;;;7.00;;
50968;SDS011;36982;51.474;7.228;2023-11-18T05:34:45;12.83;;;7.07;;
50968;SDS011;36982;51.474;7.228;2023-11-18T05:37:11;12.77;;;7.77;;
50968;SDS011;36982;51.474;7.228;2023-11-18T05:39:37;13.73;;;7.33;;
50968;SDS011;36982;51.474;7.228;2023-11-18T05:42:08;10.83;;;6.77;;
50968;SDS011;36982;51.474;7.228;2023-11-18T05:44:35;11.83;;;6.87;;
50968;SDS011;36982;51.474;7.228;2023-11-18T05:47:03;12.63;;;7.40;;
50968;SDS011;36982;51.474;7.228;2023-11-18T05:49:29;12.30;;;7.57;;
50968;SDS011;36982;51.474;7.228;2023-11-18T05:51:54;13.03;;;6.90;;
50968;SDS011;36982;51.474;7.228;2023-11-18T05:54:21;12.40;;;7.57;;
50968;SDS011;36982;51.474;7.228;2023-11-18T05:56:46;12.83;;;7.17;;
50968;SDS011;36982;51.474;7.228;2023-11-18T05:59:12;13.07;;;7.53;;
50968;SDS011;36982;51.474;7.228;2023-11-18T06:01:38;11.93;;;7.53;;
50968;SDS011;36982;51.474;7.228;2023-11-18T06:04:07;11.87;;;7.30;;
50968;SDS011;36982;51.474;7.228;2023-11-18T06:06:35;11.70;;;7.10;;
50968;SDS011;36982;51.474;7.228;2023-11-18T06:09:02;14.87;;;7.87;;
50968;SDS011;36982;51.474;7.228;2023-11-18T06:11:34;11.80;;;7.40;;
50968;SDS011;36982;51.474;7.228;2023-11-18T06:14:00;14.53;;;7.37;;
50968;SDS011;36982;51.474;7.228;2023-11-18T06:16:26;12.93;;;7.67;;
50968;SDS011;36982;51.474;7.228;2023-11-18T06:18:53;11.67;;;7.13;;
50968;SDS011;36982;51.474;7.228;2023-11-18T06:21:20;12.17;;;7.10;;
50968;SDS011;36982;51.474;7.228;2023-11-18T06:23:53;12.83;;;8.10;;
50968;SDS011;36982;51.474;7.228;2023-11-18T06:26:20;14.47;;;7.60;;
50968;SDS011;36982;51.474;7.228;2023-11-18T06:28:46;13.50;;;8.07;;
50968;SDS011;36982;51.474;7.228;2023-11-18T06:31:14;15.33;;;8.43;;
50968;SDS011;36982;51.474;7.228;2023-11-18T06:33:44;10.90;;;7.40;;
50968;SDS011;36982;51.474;7.228;2023-11-18T06:38:39;11.87;;;7.57;;
50968;SDS011;36982;51.474;7.228;2023-11-18T06:41:11;12.63;;;7.73;;
50968;SDS011;36982;51.474;7.228;2023-11-18T06:43:41;14.07;;;7.63;;
50968;SDS011;36982;51.474;7.228;2023-11-18T06:46:21;13.57;;;7.97;;
50968;SDS011;36982;51.474;7.228;2023-11-18T06:49:00;16.13;;;8.67;;
50968;SDS011;36982;51.474;7.228;2023-11-18T06:51:31;13.80;;;7.87;;
50968;SDS011;36982;51.474;7.228;2023-11-18T06:54:00;13.43;;;8.03;;
50968;SDS011;36982;51.474;7.228;2023-11-18T06:56:29;13.97;;;8.20;;
50968;SDS011;36982;51.474;7.228;2023-11-18T06:58:55;12.10;;;7.53;;
50968;SDS011;36982;51.474;7.228;2023-11-18T07:01:22;11.60;;;7.13;;
50968;SDS011;36982;51.474;7.228;2023-11-18T07:03:48;14.40;;;8.37;;
50968;SDS011;36982;51.474;7.228;2023-11-18T07:06:17;14.00;;;8.03;;
50968;SDS011;36982;51.474;7.228;2023-11-18T07:08:52;13.30;;;7.47;;
50968;SDS011;36982;51.474;7.228;2023-11-18T07:11:18;12.57;;;7.43;;
50968;SDS011;36982;51.474;7.228;2023-11-18T07:13:45;14.13;;;8.30;;
50968;SDS011;36982;51.474;7.228;2023-11-18T07:16:12;13.23;;;7.87;;
50968;SDS011;36982;51.474;7.228;2023-11-18T07:18:39;14.80;;;8.10;;
50968;SDS011;36982;51.474;7.228;2023-11-18T07:21:05;13.07;;;7.80;;
50968;SDS011;36982;51.474;7.228;2023-11-18T07:23:32;11.40;;;7.40;;
50968;SDS011;36982;51.474;7.228;2023-11-18T07:25:58;14.57;;;8.13;;
50968;SDS011;36982;51.474;7.228;2023-11-18T07:28:24;13.53;;;7.90;;
50968;SDS011;36982;51.474;7.228;2023-11-18T07:30:50;15.50;;;7.93;;
50968;SDS011;36982;51.474;7.228;2023-11-18T07:33:17;10.67;;;7.00;;
50968;SDS011;36982;51.474;7.228;2023-11-18T07:35:44;10.83;;;7.00;;
50968;SDS011;36982;51.474;7.228;2023-11-18T07:38:11;14.27;;;7.47;;
50968;SDS011;36982;51.474;7.228;2023-11-18T07:40:37;10.47;;;7.37;;
50968;SDS011;36982;51.474;7.228;2023-11-18T07:43:07;12.13;;;7.43;;
50968;SDS011;36982;51.474;7.228;2023-11-18T07:45:37;12.33;;;7.13;;
50968;SDS011;36982;51.474;7.228;2023-11-18T07:48:06;11.63;;;7.37;;
50968;SDS011;36982;51.474;7.228;2023-11-18T07:50:36;12.23;;;7.60;;
50968;SDS011;36982;51.474;7.228;2023-11-18T07:53:02;14.90;;;7.57;;
50968;SDS011;36982;51.474;7.228;2023-11-18T07:55:28;12.90;;;7.53;;
50968;SDS011;36982;51.474;7.228;2023-11-18T07:57:54;12.90;;;7.20;;
50968;SDS011;36982;51.474;7.228;2023-11-18T08:00:20;11.53;;;7.30;;
50968;SDS011;36982;51.474;7.228;2023-11-18T08:02:46;11.80;;;7.07;;
50968;SDS011;36982;51.474;7.228;2023-11-18T08:05:12;12.60;;;7.43;;
50968;SDS011;36982;51.474;7.228;2023-11-18T08:07:40;15.37;;;8.53;;
50968;SDS011;36982;51.474;7.228;2023-11-18T08:10:06;10.27;;;6.97;;
50968;SDS011;36982;51.474;7.228;2023-11-18T08:12:37;14.00;;;7.57;;
50968;SDS011;36982;51.474;7.228;2023-11-18T08:15:03;11.23;;;6.97;;
50968;SDS011;36982;51.474;7.228;2023-11-18T08:17:31;12.30;;;6.50;;
50968;SDS011;36982;51.474;7.228;2023-11-18T08:19:57;10.97;;;6.33;;
50968;SDS011;36982;51.474;7.228;2023-11-18T08:22:22;11.67;;;6.83;;
50968;SDS011;36982;51.474;7.228;2023-11-18T08:24:49;11.47;;;7.00;;
50968;SDS011;36982;51.474;7.228;2023-11-18T08:27:14;12.83;;;7.33;;
50968;SDS011;36982;51.474;7.228;2023-11-18T08:29:40;11.70;;;6.73;;
50968;SDS011;36982;51.474;7.228;2023-11-18T08:32:06;10.50;;;6.60;;
50968;SDS011;36982;51.474;7.228;2023-11-18T08:34:34;10.93;;;6.37;;
50968;SDS011;36982;51.474;7.228;2023-11-18T08:37:02;11.90;;;6.63;;
50968;SDS011;36982;51.474;7.228;2023-11-18T08:39:31;10.93;;;6.70;;
50968;SDS011;36982;51.474;7.228;2023-11-18T08:42:00;11.43;;;6.30;;
50968;SDS011;36982;51.474;7.228;2023-11-18T08:44:26;10.63;;;6.80;;
50968;SDS011;36982;51.474;7.228;2023-11-18T08:46:53;12.70;;;6.03;;
50968;SDS011;36982;51.474;7.228;2023-11-18T08:49:19;11.67;;;6.47;;
50968;SDS011;36982;51.474;7.228;2023-11-18T08:51:49;8.67;;;5.37;;
50968;SDS011;36982;51.474;7.228;2023-11-18T08:54:21;11.77;;;6.00;;
50968;SDS011;36982;51.474;7.228;2023-11-18T08:56:48;11.80;;;6.40;;
50968;SDS011;36982;51.474;7.228;2023-11-18T08:59:17;11.57;;;5.97;;
50968;SDS011;36982;51.474;7.228;2023-11-18T09:01:45;10.97;;;6.07;;
50968;SDS011;36982;51.474;7.228;2023-11-18T09:04:14;10.30;;;5.80;;
50968;SDS011;36982;51.474;7.228;2023-11-18T09:06:39;9.37;;;5.47;;
50968;SDS011;36982;51.474;7.228;2023-11-18T09:09:05;9.43;;;5.40;;
50968;SDS011;36982;51.474;7.228;2023-11-18T09:11:36;9.57;;;5.73;;
50968;SDS011;36982;51.474;7.228;2023-11-18T09:14:04;10.13;;;5.83;;
50968;SDS011;36982;51.474;7.228;2023-11-18T09:16:32;12.70;;;5.90;;
50968;SDS011;36982;51.474;7.228;2023-11-18T09:19:03;9.97;;;6.23;;
50968;SDS011;36982;51.474;7.228;2023-11-18T09:21:31;10.50;;;5.60;;
50968;SDS011;36982;51.474;7.228;2023-11-18T09:24:00;10.43;;;6.30;;
50968;SDS011;36982;51.474;7.228;2023-11-18T09:26:30;12.07;;;6.33;;
50968;SDS011;36982;51.474;7.228;2023-11-18T09:28:56;10.37;;;5.93;;
50968;SDS011;36982;51.474;7.228;2023-11-18T09:31:23;11.60;;;5.67;;
50968;SDS011;36982;51.474;7.228;2023-11-18T09:33:48;8.80;;;5.60;;
50968;SDS011;36982;51.474;7.228;2023-11-18T09:36:17;7.60;;;5.27;;
50968;SDS011;36982;51.474;7.228;2023-11-18T09:38:44;9.50;;;5.40;;
50968;SDS011;36982;51.474;7.228;2023-11-18T09:41:13;8.67;;;5.47;;
50968;SDS011;36982;51.474;7.228;2023-11-18T09:43:42;9.53;;;5.43;;
50968;SDS011;36982;51.474;7.228;2023-11-18T09:51:24;8.43;;;5.50;;
50968;SDS011;36982;51.474;7.228;2023-11-18T09:53:55;9.83;;;5.77;;
50968;SDS011;36982;51.474;7.228;2023-11-18T09:59:25;10.37;;;5.00;;
50968;SDS011;36982;51.474;7.228;2023-11-18T10:01:57;8.53;;;4.80;;
50968;SDS011;36982;51.474;7.228;2023-11-18T10:04:23;8.73;;;5.50;;
50968;SDS011;36982;51.474;7.228;2023-11-18T10:06:52;10.00;;;5.10;;
50968;SDS011;36982;51.474;7.228;2023-11-18T10:09:22;7.77;;;4.90;;
50968;SDS011;36982;51.474;7.228;2023-11-18T10:12:02;8.63;;;5.63;;
50968;SDS011;36982;51.474;7.228;2023-11-18T10:14:30;8.23;;;5.03;;
50968;SDS011;36982;51.474;7.228;2023-11-18T10:16:57;9.67;;;4.50;;
50968;SDS011;36982;51.474;7.228;2023-11-18T10:19:22;8.73;;;4.80;;
50968;SDS011;36982;51.474;7.228;2023-11-18T10:21:51;9.80;;;5.30;;
50968;SDS011;36982;51.474;7.228;2023-11-18T10:24:16;8.63;;;4.67;;
50968;SDS011;36982;51.474;7.228;2023-11-18T10:26:44;8.53;;;4.63;;
50968;SDS011;36982;51.474;7.228;2023-11-18T10:29:19;8.03;;;4.57;;
50968;SDS011;36982;51.474;7.228;2023-11-18T10:31:45;8.70;;;5.10;;
50968;SDS011;36982;51.474;7.228;2023-11-18T10:34:14;7.93;;;4.63;;
50968;SDS011;36982;51.474;7.228;2023-11-18T10:37:04;6.70;;;4.60;;
50968;SDS011;36982;51.474;7.228;2023-11-18T10:39:31;10.50;;;4.47;;
50968;SDS011;36982;51.474;7.228;2023-11-18T10:42:00;7.17;;;4.07;;
50968;SDS011;36982;51.474;7.228;2023-11-18T10:44:26;7.00;;;4.30;;
50968;SDS011;36982;51.474;7.228;2023-11-18T10:46:52;6.07;;;4.43;;
50968;SDS011;36982;51.474;7.228;2023-11-18T10:49:20;9.33;;;4.87;;
50968;SDS011;36982;51.474;7.228;2023-11-18T10:51:46;6.37;;;3.97;;
50968;SDS011;36982;51.474;7.228;2023-11-18T10:54:12;7.43;;;4.40;;
50968;SDS011;36982;51.474;7.228;2023-11-18T10:56:51;6.50;;;4.37;;
50968;SDS011;36982;51.474;7.228;2023-11-18T10:59:21;8.73;;;3.83;;
50968;SDS011;36982;51.474;7.228;2023-11-18T11:01:48;5.40;;;3.67;;
50968;SDS011;36982;51.474;7.228;2023-11-18T11:04:14;6.90;;;4.13;;
50968;SDS011;36982;51.474;7.228;2023-11-18T11:06:49;7.83;;;3.87;;
50968;SDS011;36982;51.474;7.228;2023-11-18T11:09:22;7.33;;;3.90;;
50968;SDS011;36982;51.474;7.228;2023-11-18T11:12:00;4.97;;;3.40;;
50968;SDS011;36982;51.474;7.228;2023-11-18T11:14:34;6.63;;;3.87;;
50968;SDS011;36982;51.474;7.228;2023-11-18T11:17:06;5.77;;;3.57;;
50968;SDS011;36982;51.474;7.228;2023-11-18T11:19:39;9.17;;;4.00;;
50968;SDS011;36982;51.474;7.228;2023-11-18T11:22:17;4.67;;;3.60;;
50968;SDS011;36982;51.474;7.228;2023-11-18T11:24:52;7.37;;;3.97;;
50968;SDS011;36982;51.474;7.228;2023-11-18T11:27:36;4.73;;;3.70;;
50968;SDS011;36982;51.474;7.228;2023-11-18T11:30:23;6.60;;;3.77;;
50968;SDS011;36982;51.474;7.228;2023-11-18T11:33:29;5.33;;;3.60;;
50968;SDS011;36982;51.474;7.228;2023-11-18T11:36:09;6.03;;;3.63;;
50968;SDS011;36982;51.474;7.228;2023-11-18T11:38:37;6.53;;;4.10;;
50968;SDS011;36982;51.474;7.228;2023-11-18T11:41:06;6.70;;;4.20;;
50968;SDS011;36982;51.474;7.228;2023-11-18T11:43:34;5.40;;;3.90;;
50968;SDS011;36982;51.474;7.228;2023-11-18T11:46:00;5.57;;;3.57;;
50968;SDS011;36982;51.474;7.228;2023-11-18T11:48:35;7.00;;;3.37;;
50968;SDS011;36982;51.474;7.228;2023-11-18T11:53:33;7.03;;;3.73;;
50968;SDS011;36982;51.474;7.228;2023-11-18T11:56:04;6.47;;;3.60;;
50968;SDS011;36982;51.474;7.228;2023-11-18T11:58:34;6.37;;;3.60;;
50968;SDS011;36982;51.474;7.228;2023-11-18T12:03:57;4.83;;;3.27;;
50968;SDS011;36982;51.474;7.228;2023-11-18T12:06:26;6.47;;;3.90;;
50968;SDS011;36982;51.474;7.228;2023-11-18T12:08:53;5.17;;;3.63;;
50968;SDS011;36982;51.474;7.228;2023-11-18T12:11:20;7.67;;;3.50;;
50968;SDS011;36982;51.474;7.228;2023-11-18T12:14:00;6.33;;;3.50;;
50968;SDS011;36982;51.474;7.228;2023-11-18T12:17:20;6.80;;;3.87;;
50968;SDS011;36982;51.474;7.228;2023-11-18T12:19:35;5.40;;;3.07;;
50968;SDS011;36982;51.474;7.228;2023-11-18T12:22:11;8.70;;;3.60;;
50968;SDS011;36982;51.474;7.228;2023-11-18T12:24:42;10.33;;;3.83;;
50968;SDS011;36982;51.474;7.228;2023-11-18T12:35:54;5.93;;;3.53;;
50968;SDS011;36982;51.474;7.228;2023-11-18T12:41:41;6.17;;;3.60;;
50968;SDS011;36982;51.474;7.228;2023-11-18T12:46:52;6.20;;;3.47;;
50968;SDS011;36982;51.474;7.228;2023-11-18T12:49:19;6.33;;;3.07;;
50968;SDS011;36982;51.474;7.228;2023-11-18T12:51:49;6.70;;;3.40;;
50968;SDS011;36982;51.474;7.228;2023-11-18T12:54:16;4.57;;;3.13;;
50968;SDS011;36982;51.474;7.228;2023-11-18T12:56:44;7.43;;;2.97;;
50968;SDS011;36982;51.474;7.228;2023-11-18T12:59:13;5.97;;;3.50;;
50968;SDS011;36982;51.474;7.228;2023-11-18T13:01:49;4.73;;;3.10;;
50968;SDS011;36982;51.474;7.228;2023-11-18T13:04:28;9.20;;;4.30;;
50968;SDS011;36982;51.474;7.228;2023-11-18T13:06:59;6.47;;;3.50;;
50968;SDS011;36982;51.474;7.228;2023-11-18T13:09:25;4.60;;;3.40;;
50968;SDS011;36982;51.474;7.228;2023-11-18T13:11:56;4.63;;;2.90;;
50968;SDS011;36982;51.474;7.228;2023-11-18T13:14:26;6.63;;;3.27;;
50968;SDS011;36982;51.474;7.228;2023-11-18T13:16:55;6.03;;;3.20;;
50968;SDS011;36982;51.474;7.228;2023-11-18T13:19:25;7.13;;;3.27;;
50968;SDS011;36982;51.474;7.228;2023-11-18T13:21:58;7.77;;;3.00;;
50968;SDS011;36982;51.474;7.228;2023-11-18T13:24:24;6.20;;;2.90;;
50968;SDS011;36982;51.474;7.228;2023-11-18T13:26:51;6.63;;;3.27;;
50968;SDS011;36982;51.474;7.228;2023-11-18T13:29:22;4.77;;;2.80;;
50968;SDS011;36982;51.474;7.228;2023-11-18T13:31:49;7.60;;;3.23;;
50968;SDS011;36982;51.474;7.228;2023-11-18T13:34:16;6.10;;;2.90;;
50968;SDS011;36982;51.474;7.228;2023-11-18T13:36:42;8.13;;;4.10;;
50968;SDS011;36982;51.474;7.228;2023-11-18T13:39:09;4.23;;;2.87;;
50968;SDS011;36982;51.474;7.228;2023-11-18T13:41:42;4.37;;;2.97;;
50968;SDS011;36982;51.474;7.228;2023-11-18T13:44:09;4.47;;;2.57;;
50968;SDS011;36982;51.474;7.228;2023-11-18T13:46:38;6.33;;;2.57;;
50968;SDS011;36982;51.474;7.228;2023-11-18T13:49:05;5.37;;;2.97;;
50968;SDS011;36982;51.474;7.228;2023-11-18T13:51:31;7.13;;;2.67;;
50968;SDS011;36982;51.474;7.228;2023-11-18T13:53:58;3.50;;;2.57;;
50968;SDS011;36982;51.474;7.228;2023-11-18T13:56:24;3.83;;;2.77;;
50968;SDS011;36982;51.474;7.228;2023-11-18T13:58:52;4.47;;;2.60;;
50968;SDS011;36982;51.474;7.228;2023-11-18T14:01:19;6.93;;;2.90;;
50968;SDS011;36982;51.474;7.228;2023-11-18T14:03:46;3.93;;;2.80;;
50968;SDS011;36982;51.474;7.228;2023-11-18T14:06:13;3.27;;;2.53;;
50968;SDS011;36982;51.474;7.228;2023-11-18T14:08:42;4.27;;;2.23;;
50968;SDS011;36982;51.474;7.228;2023-11-18T14:11:09;3.53;;;3.00;;
50968;SDS011;36982;51.474;7.228;2023-11-18T14:13:35;6.03;;;2.60;;
50968;SDS011;36982;51.474;7.228;2023-11-18T14:16:02;5.83;;;2.47;;
50968;SDS011;36982;51.474;7.228;2023-11-18T14:18:28;5.80;;;3.00;;
50968;SDS011;36982;51.474;7.228;2023-11-18T14:20:55;6.20;;;2.60;;
50968;SDS011;36982;51.474;7.228;2023-11-18T14:23:21;7.03;;;3.00;;
50968;SDS011;36982;51.474;7.228;2023-11-18T14:25:48;4.43;;;2.30;;
50968;SDS011;36982;51.474;7.228;2023-11-18T14:28:13;5.33;;;2.40;;
50968;SDS011;36982;51.474;7.228;2023-11-18T14:30:39;4.10;;;2.80;;
50968;SDS011;36982;51.474;7.228;2023-11-18T14:33:05;3.37;;;2.20;;
50968;SDS011;36982;51.474;7.228;2023-11-18T14:35:34;5.10;;;2.17;;
50968;SDS011;36982;51.474;7.228;2023-11-18T14:38:00;3.03;;;1.93;;
50968;SDS011;36982;51.474;7.228;2023-11-18T14:40:26;3.70;;;2.10;;
50968;SDS011;36982;51.474;7.228;2023-11-18T14:42:53;3.97;;;2.40;;
50968;SDS011;36982;51.474;7.228;2023-11-18T14:45:20;4.90;;;2.37;;
50968;SDS011;36982;51.474;7.228;2023-11-18T14:47:46;3.47;;;1.70;;
50968;SDS011;36982;51.474;7.228;2023-11-18T14:50:22;4.40;;;2.40;;
50968;SDS011;36982;51.474;7.228;2023-11-18T14:52:49;2.70;;;1.87;;
50968;SDS011;36982;51.474;7.228;2023-11-18T14:55:17;3.33;;;1.90;;
50968;SDS011;36982;51.474;7.228;2023-11-18T14:57:43;3.87;;;2.00;;
50968;SDS011;36982;51.474;7.228;2023-11-18T15:00:10;6.33;;;2.00;;
50968;SDS011;36982;51.474;7.228;2023-11-18T15:02:53;5.80;;;2.20;;
50968;SDS011;36982;51.474;7.228;2023-11-18T15:05:22;4.73;;;1.83;;
50968;SDS011;36982;51.474;7.228;2023-11-18T15:07:49;4.70;;;2.03;;
50968;SDS011;36982;51.474;7.228;2023-11-18T15:12:48;6.43;;;2.20;;
50968;SDS011;36982;51.474;7.228;2023-11-18T15:15:21;3.90;;;2.00;;
50968;SDS011;36982;51.474;7.228;2023-11-18T15:17:48;4.53;;;2.23;;